Time;durP1;ratioP1;P1;durP2;ratioP2;P2;SDS_P1;SDS_P2;PMS_P1;PMS_P2;Temp;Humidity;BMP_temperature;BMP_pressure;BME280_temperature;BME280_humidity;BME280_pressure;Samples;Min_cycle;Max_cycle;Signal;HPM_P1;HPM_P2
2022/11/21 00:00:59;;;;;;;48.30;21.80;;;0.60;99.90;;;-1.12;100.00;100006.31;4965621;28;20450;-76
2022/11/21 00:03:25;;;;;;;48.42;20.88;;;0.60;99.90;;;-1.10;100.00;99998.53;4963496;28;20121;-75
2022/11/21 00:05:51;;;;;;;52.15;22.00;;;0.60;99.90;;;-1.16;100.00;100008.94;4967014;28;20122;-76
2022/11/21 00:08:19;;;;;;;51.30;21.02;;;0.60;99.90;;;-1.14;100.00;100007.22;4965986;28;20447;-75
2022/11/21 00:10:45;;;;;;;52.00;20.48;;;0.70;99.90;;;-1.13;100.00;99998.56;4964900;28;20376;-75
2022/11/21 00:13:19;;;;;;;51.35;20.90;;;0.70;99.90;;;-1.10;100.00;100009.75;4959733;28;20085;-75
2022/11/21 00:15:47;;;;;;;58.15;21.63;;;0.70;99.90;;;-1.10;100.00;100001.09;4984381;28;20027;-75
2022/11/21 00:18:13;;;;;;;60.25;21.65;;;0.70;99.90;;;-1.08;100.00;99997.66;4979422;28;20030;-75
2022/11/21 00:20:40;;;;;;;95.50;23.63;;;0.70;99.90;;;-1.06;100.00;99997.63;4965415;28;20527;-75
2022/11/21 00:23:07;;;;;;;75.43;22.02;;;0.70;99.90;;;-1.02;100.00;99998.47;4963059;28;21020;-76
2022/11/21 00:25:34;;;;;;;83.78;21.38;;;0.70;99.90;;;-1.02;100.00;99998.47;4963328;28;20034;-76
2022/11/21 00:27:59;;;;;;;123.03;24.02;;;0.70;99.90;;;-1.00;100.00;99996.72;4965020;28;20085;-75
2022/11/21 00:30:25;;;;;;;89.32;23.67;;;0.70;99.90;;;-0.97;100.00;99989.78;4966118;28;20110;-75
2022/11/21 00:32:51;;;;;;;97.20;24.42;;;0.80;99.90;;;-0.96;100.00;99982.88;4965284;28;20500;-76
2022/11/21 00:35:17;;;;;;;108.78;24.80;;;0.80;99.90;;;-0.96;100.00;99982.88;4962963;28;20035;-76
2022/11/21 00:37:43;;;;;;;88.75;24.33;;;0.80;99.90;;;-0.92;100.00;99982.81;4982133;28;20050;-76
2022/11/21 00:40:09;;;;;;;85.28;24.15;;;0.80;99.90;;;-0.90;100.00;99983.66;4965570;28;20093;-76
2022/11/21 00:42:35;;;;;;;83.22;24.25;;;0.80;99.90;;;-0.85;100.00;99986.19;4981567;28;20034;-75
2022/11/21 00:45:01;;;;;;;83.28;24.42;;;0.80;99.90;;;-0.85;100.00;99984.47;4984322;28;20453;-76
2022/11/21 00:47:27;;;;;;;74.75;22.27;;;0.90;99.90;;;-0.79;100.00;99988.72;4963525;28;20038;-76
2022/11/21 00:49:53;;;;;;;74.53;23.95;;;0.90;99.90;;;-0.76;100.00;99991.25;4963972;28;20035;-76
2022/11/21 00:52:18;;;;;;;85.13;23.45;;;0.90;99.90;;;-0.77;100.00;99991.28;4962373;28;20031;-76
2022/11/21 00:54:44;;;;;;;78.32;23.70;;;0.90;99.90;;;-0.80;100.00;99988.72;4965528;28;20454;-76
2022/11/21 00:57:10;;;;;;;70.65;22.83;;;0.90;99.90;;;-0.79;100.00;99986.13;4965091;28;20030;-75
2022/11/21 00:59:36;;;;;;;75.18;23.33;;;0.90;99.90;;;-0.77;100.00;99989.56;4964304;28;20035;-76
2022/11/21 01:02:01;;;;;;;76.47;23.80;;;1.00;99.90;;;-0.74;100.00;99991.25;4961129;28;20029;-76
2022/11/21 01:04:33;;;;;;;78.50;24.98;;;1.00;99.90;;;-0.73;100.00;99993.81;4964572;28;20039;-75
2022/11/21 01:06:59;;;;;;;73.15;23.90;;;1.00;99.90;;;-0.71;100.00;99997.25;4963860;28;20049;-75
2022/11/21 01:09:27;;;;;;;80.40;24.55;;;1.00;99.90;;;-0.68;100.00;99991.16;4965746;28;20092;-75
2022/11/21 01:11:55;;;;;;;75.13;24.30;;;1.00;99.90;;;-0.67;100.00;99983.41;4945484;28;20038;-76
2022/11/21 01:14:20;;;;;;;77.68;24.42;;;1.00;99.90;;;-0.65;100.00;99975.59;4965686;28;20027;-76
2022/11/21 01:16:46;;;;;;;82.07;26.70;;;1.10;99.90;;;-0.60;100.00;99973.84;4965650;28;20033;-76
2022/11/21 01:19:12;;;;;;;83.97;26.92;;;1.10;99.90;;;-0.59;100.00;99975.53;4964771;28;20026;-77
2022/11/21 01:21:38;;;;;;;87.45;25.10;;;1.10;99.90;;;-0.59;100.00;99970.34;4964827;28;20040;-76
2022/11/21 01:24:04;;;;;;;94.45;26.40;;;1.10;99.90;;;-0.59;100.00;99970.34;4962577;28;20114;-77
2022/11/21 01:26:32;;;;;;;86.78;26.20;;;1.10;99.90;;;-0.57;100.00;99963.44;4965599;28;20037;-75
2022/11/21 01:28:58;;;;;;;82.90;26.13;;;1.10;99.90;;;-0.54;100.00;99959.94;4967386;28;20061;-76
2022/11/21 01:31:27;;;;;;;92.47;26.45;;;1.10;99.90;;;-0.55;100.00;99958.25;4963774;28;20034;-78
2022/11/21 01:33:55;;;;;;;85.72;26.42;;;1.20;99.90;;;-0.57;100.00;99949.66;4980330;28;20519;-77
2022/11/21 01:36:29;;;;;;;89.32;26.58;;;1.10;99.90;;;-0.58;100.00;99948.81;4978776;28;20054;-76
2022/11/21 01:38:58;;;;;;;103.78;26.83;;;1.10;99.90;;;-0.60;100.00;99949.69;4964209;28;20045;-75
2022/11/21 01:41:45;;;;;;;90.35;26.92;;;1.10;99.90;;;-0.54;100.00;99945.31;4964384;28;20500;-76
2022/11/21 01:44:23;;;;;;;90.07;26.73;;;1.10;99.90;;;-0.51;100.00;99949.59;4962783;28;20207;-75
2022/11/21 01:46:50;;;;;;;98.60;27.98;;;1.10;99.90;;;-0.51;100.00;99945.25;4960026;28;20077;-75
2022/11/21 01:49:28;;;;;;;104.13;27.48;;;1.20;99.90;;;-0.51;100.00;99945.25;4963109;28;20038;-76
2022/11/21 01:52:16;;;;;;;120.32;28.88;;;1.20;99.90;;;-0.50;100.00;99946.09;4963228;28;20035;-76
2022/11/21 01:54:56;;;;;;;120.90;29.50;;;1.20;99.90;;;-0.53;100.00;99946.16;4981455;28;20161;-76
2022/11/21 01:57:47;;;;;;;122.30;29.30;;;1.20;99.90;;;-0.54;100.00;99940.13;4980317;28;20034;-77
2022/11/21 02:00:22;;;;;;;114.97;29.17;;;1.20;99.90;;;-0.54;100.00;99939.25;4962646;28;20510;-77
2022/11/21 02:02:57;;;;;;;100.60;28.03;;;1.20;99.90;;;-0.58;100.00;99940.19;4980611;28;20474;-76
2022/11/21 02:05:32;;;;;;;91.75;27.10;;;1.20;99.90;;;-0.64;100.00;99939.41;4962224;28;20037;-76
2022/11/21 02:08:07;;;;;;;82.50;25.40;;;1.10;99.90;;;-0.67;100.00;99942.03;4963309;28;20047;-76
2022/11/21 02:10:35;;;;;;;94.30;33.33;;;1.10;99.90;;;-0.69;100.00;99933.44;4947476;28;20027;-76
2022/11/21 02:13:01;;;;;;;96.05;33.40;;;1.10;99.90;;;-0.66;100.00;99937.72;4961065;28;20034;-77
2022/11/21 02:15:28;;;;;;;90.35;31.45;;;1.10;99.90;;;-0.64;100.00;99947.16;4962932;28;20043;-76
2022/11/21 02:17:55;;;;;;;98.53;33.15;;;1.10;99.90;;;-0.58;100.00;99942.75;4965778;28;20034;-77
2022/11/21 02:20:27;;;;;;;91.72;34.30;;;1.10;99.90;;;-0.56;100.00;99944.47;4962317;28;20171;-76
2022/11/21 02:23:04;;;;;;;109.18;34.00;;;1.20;99.90;;;-0.55;100.00;99941.00;4962358;28;20027;-76
2022/11/21 02:25:34;;;;;;;90.45;32.60;;;1.20;99.90;;;-0.56;100.00;99938.44;4969559;28;20289;-76
2022/11/21 02:28:07;;;;;;;77.82;30.67;;;1.10;99.90;;;-0.56;100.00;99938.44;4963232;28;20046;-76
2022/11/21 02:30:36;;;;;;;76.22;29.58;;;1.10;99.90;;;-0.57;100.00;99937.56;4963406;28;20384;-77
2022/11/21 02:33:02;;;;;;;74.50;27.20;;;1.20;99.90;;;-0.60;100.00;99939.34;4960746;28;20085;-77
2022/11/21 02:35:28;;;;;;;57.60;23.58;;;1.10;99.90;;;-0.67;100.00;99926.53;4980148;28;20073;-76
2022/11/21 02:38:02;;;;;;;61.22;23.02;;;1.10;99.90;;;-0.63;100.00;99930.78;4981200;28;20030;-76
2022/11/21 02:40:38;;;;;;;65.68;24.48;;;1.20;99.90;;;-0.60;100.00;99936.75;4967497;28;20041;-76
2022/11/21 02:43:15;;;;;;;;;;;1.10;99.90;;;-0.62;100.00;99935.06;4963638;28;20042;-76
2022/11/21 02:45:44;;;;;;;61.03;23.13;;;1.10;99.90;;;-0.62;100.00;99932.47;4964590;28;19918;-76
2022/11/21 02:48:11;;;;;;;61.67;23.55;;;1.10;99.90;;;-0.65;100.00;99924.78;4980848;28;20117;-76
2022/11/21 02:50:43;;;;;;;67.18;25.02;;;1.10;99.90;;;-0.66;100.00;99933.38;4967304;28;20034;-76
2022/11/21 02:53:16;;;;;;;66.63;25.15;;;1.10;99.90;;;-0.64;100.00;99926.47;4968171;28;20031;-78
2022/11/21 02:55:43;;;;;;;62.60;24.00;;;1.10;99.90;;;-0.59;100.00;99922.97;4970499;28;20546;-76
2022/11/21 02:58:10;;;;;;;65.68;25.02;;;1.10;99.90;;;-0.56;100.00;99930.66;4963922;28;20138;-76
2022/11/21 03:00:39;;;;;;;72.18;25.70;;;1.20;99.90;;;-0.55;100.00;99930.66;4965725;28;20034;-76
2022/11/21 03:03:05;;;;;;;64.72;25.13;;;1.10;99.90;;;-0.52;100.00;99935.81;4967970;28;20030;-76
2022/11/21 03:05:31;;;;;;;66.75;25.63;;;1.20;99.90;;;-0.53;100.00;99928.06;4967487;28;20462;-77
2022/11/21 03:07:57;;;;;;;62.90;24.88;;;1.20;99.90;;;-0.54;100.00;99931.50;4967355;28;20030;-75
2022/11/21 03:10:23;;;;;;;71.38;26.48;;;1.20;99.90;;;-0.50;100.00;99922.81;4966157;28;20030;-76
2022/11/21 03:12:49;;;;;;;63.53;25.65;;;1.20;99.90;;;-0.49;100.00;99928.00;4963141;28;20222;-76
2022/11/21 03:15:17;;;;;;;63.90;23.92;;;1.20;99.90;;;-0.48;100.00;99926.25;4952562;28;20031;-76
2022/11/21 03:17:48;;;;;;;62.83;24.85;;;1.20;99.90;;;-0.46;100.00;99929.66;4967927;28;20030;-75
2022/11/21 03:20:14;;;;;;;65.85;25.73;;;1.20;99.90;;;-0.46;100.00;99927.09;4964673;28;20062;-76
2022/11/21 03:22:40;;;;;;;71.75;25.25;;;1.20;99.90;;;-0.44;100.00;99925.34;4962228;28;20031;-76
2022/11/21 03:25:06;;;;;;;70.10;25.58;;;1.30;99.90;;;-0.46;100.00;99916.75;4966039;28;20486;-75
2022/11/21 03:27:31;;;;;;;68.68;25.70;;;1.20;99.90;;;-0.44;100.00;99917.56;4968578;28;20037;-75
2022/11/21 03:29:57;;;;;;;77.68;27.48;;;1.30;99.90;;;-0.43;100.00;99916.72;4966090;28;20039;-76
2022/11/21 03:32:23;;;;;;;73.63;26.17;;;1.30;99.90;;;-0.47;100.00;99917.63;4966442;28;20118;-75
2022/11/21 03:34:49;;;;;;;80.82;28.00;;;1.30;99.90;;;-0.52;100.00;99919.41;4964918;28;20132;-76
2022/11/21 03:37:15;;;;;;;80.18;27.58;;;1.20;99.90;;;-0.51;100.00;99914.22;4963488;28;20027;-77
2022/11/21 03:39:41;;;;;;;93.55;30.33;;;1.20;99.90;;;-0.52;100.00;99932.34;4966427;28;20037;-76
2022/11/21 03:42:07;;;;;;;90.80;29.77;;;1.20;99.90;;;-0.52;100.00;99927.16;4980822;28;20026;-76
2022/11/21 03:44:33;;;;;;;94.32;30.90;;;1.20;99.90;;;-0.53;100.00;99921.16;4964392;28;20035;-76
2022/11/21 03:46:58;;;;;;;100.07;31.52;;;1.20;99.90;;;-0.54;100.00;99916.88;4950031;28;20034;-75
2022/11/21 03:49:24;;;;;;;92.15;28.90;;;1.20;99.90;;;-0.51;100.00;99918.53;4963658;28;20121;-76
2022/11/21 03:51:50;;;;;;;88.93;28.63;;;1.20;99.90;;;-0.52;100.00;99919.41;4955384;28;20134;-76
2022/11/21 03:54:16;;;;;;;95.20;29.95;;;1.20;99.90;;;-0.53;100.00;99928.06;4965877;28;20094;-75
2022/11/21 03:56:41;;;;;;;93.45;30.80;;;1.20;99.90;;;-0.53;100.00;99917.72;4964786;28;20099;-76
2022/11/21 03:59:07;;;;;;;104.60;31.80;;;1.20;99.90;;;-0.52;100.00;99919.41;4983945;28;20031;-76
2022/11/21 04:01:33;;;;;;;101.68;31.00;;;1.20;99.90;;;-0.52;100.00;99914.22;4962695;28;20803;-76
2022/11/21 04:03:59;;;;;;;116.30;33.70;;;1.20;99.90;;;-0.52;100.00;99930.63;4948941;28;20042;-76
2022/11/21 04:06:25;;;;;;;111.07;32.38;;;1.20;99.90;;;-0.51;100.00;99923.72;4966372;28;20083;-75
2022/11/21 04:08:51;;;;;;;110.05;32.35;;;1.20;99.90;;;-0.49;100.00;99932.31;4981886;28;20097;-76
2022/11/21 04:11:20;;;;;;;109.10;31.90;;;1.20;99.90;;;-0.51;100.00;99934.06;4966026;28;20101;-75
2022/11/21 04:13:47;;;;;;;106.43;31.27;;;1.20;99.90;;;-0.51;100.00;99931.47;4963173;28;20049;-76
2022/11/21 04:16:12;;;;;;;88.10;29.52;;;1.20;99.90;;;-0.53;100.00;99928.06;4964361;28;20110;-76
2022/11/21 04:18:38;;;;;;;88.38;28.17;;;1.20;99.90;;;-0.58;100.00;99919.50;4972004;28;20105;-76
2022/11/21 04:21:07;;;;;;;85.53;26.95;;;1.20;99.90;;;-0.58;100.00;99922.94;4963438;28;20158;-77
2022/11/21 04:23:33;;;;;;;77.40;26.95;;;1.10;99.90;;;-0.63;100.00;99922.13;4963549;28;20058;-76
2022/11/21 04:25:59;;;;;;;77.47;27.85;;;1.10;99.90;;;-0.66;100.00;99917.88;4965320;28;20414;-75
2022/11/21 04:28:25;;;;;;;79.35;26.77;;;1.10;99.90;;;-0.68;100.00;99927.38;4948326;28;20419;-76
2022/11/21 04:30:51;;;;;;;85.00;28.30;;;1.10;99.90;;;-0.69;100.00;99927.38;4984013;28;20035;-77
2022/11/21 04:33:18;;;;;;;85.43;27.52;;;1.10;99.90;;;-0.70;100.00;99920.53;4963617;28;20034;-76
2022/11/21 04:38:16;;;;;;;82.90;27.00;;;1.10;99.90;;;-0.68;100.00;99922.22;4982875;28;20065;-77
2022/11/21 04:40:44;;;;;;;79.72;26.08;;;1.10;99.90;;;-0.66;100.00;99917.03;4951025;28;20023;-76
2022/11/21 04:43:09;;;;;;;81.20;26.67;;;1.10;99.90;;;-0.64;100.00;99929.06;4965681;28;20050;-76
2022/11/21 04:45:35;;;;;;;88.82;27.13;;;1.10;99.90;;;-0.67;100.00;99921.34;4996480;28;20124;-77
2022/11/21 04:48:01;;;;;;;80.50;27.00;;;1.10;99.90;;;-0.70;100.00;99923.97;4975746;28;20054;-78
2022/11/21 04:50:27;;;;;;;74.45;26.67;;;;;;;-0.69;100.00;99923.09;4994058;28;20057;-78
2022/11/21 04:52:56;;;;;;;75.60;27.13;;;1.10;99.90;;;-0.69;100.00;99925.69;4990742;28;20510;-79
2022/11/21 04:55:27;;;;;;;72.78;26.40;;;1.10;99.90;;;-0.69;100.00;99928.28;4971886;28;20038;-79
2022/11/21 04:57:53;;;;;;;66.75;24.90;;;1.10;99.90;;;-0.73;100.00;99934.34;4963504;28;20032;-79
2022/11/21 05:00:20;;;;;;;72.03;25.75;;;1.00;99.90;;;-0.71;100.00;99930.03;4953299;28;20027;-79
2022/11/21 05:02:46;;;;;;;68.03;25.98;;;1.10;99.90;;;-0.73;100.00;99929.19;4963154;28;20069;-78
2022/11/21 05:05:12;;;;;;;72.50;24.20;;;1.10;99.90;;;-0.75;100.00;99923.19;4952350;28;20107;-78
2022/11/21 05:07:38;;;;;;;65.90;25.42;;;1.00;99.90;;;-0.79;100.00;99918.06;4967248;28;20031;-78
2022/11/21 05:10:05;;;;;;;64.63;25.73;;;1.00;99.90;;;-0.85;100.00;99916.41;4981070;28;20053;-77
2022/11/21 05:15:17;;;;;;;64.97;24.90;;;1.00;99.90;;;-0.78;100.00;99918.03;4965844;28;20111;-77
2022/11/21 05:17:45;;;;;;;68.53;26.98;;;1.00;99.90;;;-0.77;100.00;99914.59;4967644;28;20041;-78
2022/11/21 05:20:12;;;;;;;64.72;26.13;;;1.00;99.90;;;-0.76;100.00;99913.69;4947119;28;20114;-78
2022/11/21 05:22:37;;;;;;;60.55;24.25;;;1.00;99.90;;;-0.77;100.00;99919.75;4968683;28;20018;-78
2022/11/21 05:25:04;;;;;;;62.50;25.67;;;1.00;99.90;;;-0.73;100.00;99921.44;4981240;28;20092;-77
2022/11/21 05:27:30;;;;;;;63.35;25.15;;;1.00;99.90;;;-0.73;100.00;99926.59;4967176;28;20046;-78
2022/11/21 05:29:56;;;;;;;61.55;24.83;;;1.00;99.90;;;-0.73;100.00;99929.19;4969912;28;20042;-79
2022/11/21 05:32:24;;;;;;;53.15;23.45;;;1.00;99.90;;;-0.76;100.00;99928.34;4963083;28;20475;-77
2022/11/21 05:34:50;;;;;;;50.78;22.70;;;1.00;99.90;;;-0.78;100.00;99923.19;4971614;28;20442;-78
2022/11/21 05:37:16;;;;;;;50.60;23.20;;;1.00;99.90;;;-0.73;100.00;99930.91;4955847;28;20029;-78
2022/11/21 05:39:41;;;;;;;56.63;23.23;;;1.00;99.90;;;-0.72;100.00;99928.28;4953773;28;20763;-78
2022/11/21 05:42:07;;;;;;;58.78;24.25;;;1.00;99.90;;;-0.68;100.00;99927.38;4949179;28;20035;-78
2022/11/21 05:44:33;;;;;;;65.00;25.73;;;1.00;99.90;;;-0.67;100.00;99931.69;4980855;28;20609;-78
2022/11/21 05:47:01;;;;;;;55.58;24.77;;;1.10;99.90;;;-0.71;100.00;99926.59;4980425;28;20126;-78
2022/11/21 05:49:29;;;;;;;51.65;24.15;;;1.00;99.90;;;-0.68;100.00;99927.38;4946730;28;20031;-78
2022/11/21 05:51:55;;;;;;;51.83;24.48;;;1.00;99.90;;;-0.67;100.00;99923.06;4979132;28;20042;-78
2022/11/21 05:54:21;;;;;;;46.90;21.48;;;1.00;99.90;;;-0.70;100.00;99926.53;4980221;28;20054;-78
2022/11/21 05:56:46;;;;;;;45.50;22.40;;;1.00;99.90;;;-0.69;100.00;99929.97;4978638;28;20034;-78
2022/11/21 05:59:12;;;;;;;48.20;22.55;;;1.10;99.90;;;-0.74;100.00;99924.88;4962665;28;20539;-77
2022/11/21 06:04:23;;;;;;;57.40;24.80;;;1.00;99.90;;;-0.73;100.00;99930.91;4977955;28;20092;-78
2022/11/21 06:06:48;;;;;;;52.97;24.15;;;1.00;99.90;;;-0.75;100.00;99930.09;4963651;28;20034;-78
2022/11/21 06:09:14;;;;;;;49.63;23.95;;;1.00;99.90;;;-0.73;100.00;99924.00;4980661;28;20038;-77
2022/11/21 06:11:40;;;;;;;55.85;25.08;;;1.00;99.90;;;-0.69;100.00;99930.84;4961939;28;20541;-78
2022/11/21 06:14:06;;;;;;;53.15;25.27;;;1.00;99.90;;;-0.80;100.00;99931.84;4981718;28;20251;-78
2022/11/21 06:16:31;;;;;;;51.67;25.73;;;1.80;99.90;;;-0.76;100.00;99929.22;4980567;28;20082;-78
2022/11/21 06:18:57;;;;;;;55.75;26.67;;;1.00;99.90;;;-0.72;100.00;99936.03;4981876;28;20026;-77
2022/11/21 06:21:27;;;;;;;60.85;26.70;;;1.00;99.90;;;-0.75;100.00;99930.94;4981714;28;20133;-78
2022/11/21 06:23:56;;;;;;;61.92;27.55;;;1.00;99.90;;;-0.72;100.00;99938.63;4975932;28;20037;-77
2022/11/21 06:26:24;;;;;;;59.28;27.10;;;1.00;99.90;;;-0.69;100.00;99940.31;4974523;28;20113;-77
2022/11/21 06:28:51;;;;;;;66.35;28.05;;;1.10;99.90;;;-0.69;100.00;99943.78;4965911;28;20105;-77
2022/11/21 06:31:26;;;;;;;67.60;27.20;;;1.00;99.90;;;-0.71;100.00;99937.78;4973514;28;20027;-78
2022/11/21 06:33:58;;;;;;;59.30;27.63;;;1.00;99.90;;;-0.76;100.00;99942.13;4982326;28;20616;-77
2022/11/21 06:36:26;;;;;;;57.85;27.00;;;1.00;99.90;;;-0.77;100.00;99943.03;4968252;28;20035;-77
2022/11/21 06:38:54;;;;;;;61.80;27.83;;;1.00;99.90;;;-0.74;100.00;99945.56;4985899;28;20541;-78
2022/11/21 06:41:23;;;;;;;64.07;27.58;;;1.00;99.90;;;-0.76;100.00;99952.47;4982864;28;20069;-78
2022/11/21 06:43:51;;;;;;;56.42;26.85;;;1.00;99.90;;;-0.79;100.00;99949.94;4963024;28;20043;-78
2022/11/21 06:46:18;;;;;;;61.20;26.85;;;1.00;99.90;;;-0.81;100.00;99954.28;4969623;28;20034;-78
2022/11/21 06:48:44;;;;;;;57.17;26.90;;;1.00;99.90;;;-0.81;100.00;99938.75;4973591;28;20037;-76
2022/11/21 06:51:14;;;;;;;62.28;28.35;;;1.00;99.90;;;-0.79;100.00;99952.53;4984253;28;20033;-77
2022/11/21 06:53:40;;;;;;;57.72;27.27;;;0.90;99.90;;;-0.81;100.00;99954.28;4984421;28;20027;-77
2022/11/21 06:56:06;;;;;;;52.63;24.83;;;0.90;99.90;;;-0.77;100.00;99949.94;4982541;28;20034;-78
2022/11/21 06:58:31;;;;;;;57.22;26.42;;;1.00;99.90;;;-0.79;100.00;99947.34;4966496;28;20039;-76
2022/11/21 07:01:09;;;;;;;57.25;26.45;;;0.90;99.90;;;-0.79;100.00;99949.94;4966997;28;20042;-79
2022/11/21 07:03:35;;;;;;;52.35;24.20;;;1.00;99.90;;;-0.79;100.00;99956.84;4965092;28;20419;-78
2022/11/21 07:06:02;;;;;;;56.97;25.55;;;0.90;99.90;;;-0.78;100.00;99954.22;4972715;28;20550;-76
2022/11/21 07:08:30;;;;;;;51.85;24.50;;;1.00;99.90;;;-0.81;100.00;99956.84;4984181;28;20115;-78
2022/11/21 07:11:02;;;;;;;51.40;24.92;;;1.00;99.90;;;-0.78;100.00;99954.22;4984133;28;20394;-78
2022/11/21 07:13:28;;;;;;;51.80;25.17;;;0.90;99.90;;;-0.86;100.00;99958.66;4984714;28;20038;-78
2022/11/21 07:16:09;;;;;;;48.45;23.20;;;1.00;99.90;;;-0.78;100.00;99961.97;4966064;28;20026;-78
2022/11/21 07:18:36;;;;;;;51.80;23.60;;;0.90;99.90;;;-0.78;100.00;99964.56;4982374;28;20042;-77
2022/11/21 07:21:05;;;;;;;52.38;23.90;;;0.90;99.90;;;-0.78;100.00;99966.28;4983287;28;20114;-77
2022/11/21 07:23:34;;;;;;;51.33;23.50;;;1.00;99.90;;;-0.73;100.00;99969.69;4967713;28;20394;-76
2022/11/21 07:26:04;;;;;;;60.63;40.28;;;1.00;99.90;;;-0.69;100.00;99967.06;4986019;28;20388;-76
2022/11/21 07:28:31;;;;;;;66.03;29.92;;;1.00;99.90;;;-0.63;100.00;99961.81;4982398;28;20029;-78
2022/11/21 07:30:59;;;;;;;59.45;30.73;;;1.10;99.90;;;-0.57;100.00;99965.19;4983230;28;20049;-79
2022/11/21 07:33:26;;;;;;;58.40;28.02;;;1.10;99.90;;;-0.55;100.00;99960.84;4981667;28;20093;-78
2022/11/21 07:35:54;;;;;;;102.45;40.40;;;1.10;99.90;;;-0.51;100.00;99960.78;4953349;28;20029;-77
2022/11/21 07:38:19;;;;;;;178.13;61.53;;;1.10;99.90;;;-0.50;100.00;99966.78;4980285;28;20042;-78
2022/11/21 07:40:45;;;;;;;139.65;48.10;;;1.20;99.90;;;-0.51;100.00;99967.69;4984175;28;20018;-78
2022/11/21 07:43:11;;;;;;;60.40;27.13;;;1.10;99.90;;;-0.53;100.00;99959.09;4982968;28;20188;-76
2022/11/21 07:45:37;;;;;;;51.17;25.90;;;1.20;99.90;;;-0.53;100.00;99959.94;4967513;28;20121;-78
2022/11/21 07:48:06;;;;;;;45.28;23.02;;;1.20;99.90;;;-0.52;100.00;99960.78;4983703;28;20113;-76
2022/11/21 07:50:32;;;;;;;46.83;24.60;;;1.20;99.90;;;-0.50;100.00;99964.22;4969480;28;20041;-77
2022/11/21 07:53:00;;;;;;;46.22;23.95;;;1.20;99.90;;;-0.48;100.00;99952.97;4982171;28;20454;-78
2022/11/21 07:55:28;;;;;;;43.28;23.65;;;1.20;99.90;;;-0.48;100.00;99958.13;4971546;28;20037;-79
2022/11/21 07:58:03;;;;;;;44.55;23.50;;;1.20;99.90;;;-0.46;100.00;99965.88;4981422;28;20046;-77
2022/11/21 08:00:30;;;;;;;42.90;22.80;;;1.10;99.90;;;-0.53;100.00;99961.69;4983655;28;20033;-79
2022/11/21 08:02:56;;;;;;;42.35;23.15;;;1.10;99.90;;;-0.46;100.00;99961.56;4980483;28;20035;-77
2022/11/21 08:05:23;;;;;;;43.70;22.63;;;1.20;99.90;;;-0.46;100.00;99960.69;4982598;28;20034;-77
2022/11/21 08:07:53;;;;;;;43.78;25.02;;;1.20;99.90;;;-0.39;100.00;99959.72;4981317;28;20511;-78
2022/11/21 08:10:19;;;;;;;43.88;23.83;;;1.20;99.90;;;-0.36;100.00;99964.88;4970067;28;20038;-78
2022/11/21 08:12:45;;;;;;;43.05;23.25;;;1.20;99.90;;;-0.31;100.00;99959.63;4966115;28;20517;-77
2022/11/21 08:15:11;;;;;;;41.92;23.33;;;1.20;99.90;;;-0.27;100.00;99959.56;4979021;28;20503;-78
2022/11/21 08:17:38;;;;;;;49.70;24.80;;;1.30;99.90;;;-0.24;100.00;99956.06;4982484;28;20030;-78
2022/11/21 08:20:06;;;;;;;43.20;23.77;;;1.30;99.90;;;-0.19;100.00;99963.75;4980280;28;20041;-78
2022/11/21 08:22:37;;;;;;;43.92;23.27;;;1.30;99.90;;;-0.22;100.00;99962.09;4995189;28;20084;-78
2022/11/21 08:25:03;;;;;;;43.55;23.40;;;1.30;99.90;;;-0.19;100.00;99964.66;4983876;28;20106;-77
2022/11/21 08:27:29;;;;;;;51.53;27.08;;;1.40;99.90;;;-0.18;100.00;99965.50;4961823;28;20549;-77
2022/11/21 08:29:55;;;;;;;54.63;28.25;;;1.40;99.90;;;-0.18;100.00;99966.34;4982471;28;20034;-78
2022/11/21 08:32:25;;;;;;;73.60;35.30;;;1.40;99.90;;;-0.16;100.00;99976.69;4967772;28;20440;-78
2022/11/21 08:34:51;;;;;;;75.25;37.85;;;1.40;99.90;;;-0.14;100.00;99974.91;4965282;28;20656;-77
2022/11/21 08:37:17;;;;;;;87.72;39.95;;;1.40;99.90;;;-0.15;100.00;99978.38;4981256;28;20513;-79
2022/11/21 08:39:50;;;;;;;128.88;52.50;;;1.40;99.90;;;-0.16;100.00;99979.25;4981488;28;20038;-78
2022/11/21 08:42:22;;;;;;;185.43;74.60;;;1.40;99.90;;;-0.18;100.00;99975.84;4981174;28;20034;-78
2022/11/21 08:44:48;;;;;;;191.25;78.53;;;1.40;99.90;;;-0.17;100.00;99974.94;4983033;28;20106;-78
2022/11/21 08:47:14;;;;;;;172.32;71.57;;;1.40;99.90;;;-0.10;100.00;99974.84;4975838;28;20448;-76
2022/11/21 08:49:42;;;;;;;151.93;63.42;;;1.40;99.90;;;0.05;100.00;99984.13;4981228;28;20490;-77
2022/11/21 08:52:08;;;;;;;107.47;51.42;;;1.60;99.90;;;0.22;100.00;99986.44;4965987;28;20381;-78
2022/11/21 08:54:33;;;;;;;77.18;39.50;;;1.70;99.90;;;0.42;100.00;99999.06;4980843;28;20085;-77
2022/11/21 08:57:02;;;;;;;77.57;39.05;;;1.80;99.90;;;0.56;100.00;99991.03;4976813;28;20055;-77
2022/11/21 08:59:35;;;;;;;73.22;38.40;;;1.90;99.90;;;0.63;100.00;99987.47;4980675;28;20030;-76
2022/11/21 09:02:01;;;;;;;58.40;30.50;;;2.00;99.90;;;0.62;100.00;99993.53;4982492;28;20030;-78
2022/11/21 09:04:33;;;;;;;50.60;28.27;;;2.10;99.90;;;0.61;100.00;100005.63;4981091;28;20061;-78
2022/11/21 09:07:00;;;;;;;48.95;27.95;;;2.10;99.90;;;0.60;100.00;100006.53;4981363;28;20061;-78
2022/11/21 09:09:35;;;;;;;46.30;25.15;;;2.10;99.90;;;0.54;100.00;100006.63;4949914;28;20041;-77
2022/11/21 09:12:03;;;;;;;38.85;22.42;;;;;;;0.49;100.00;99999.81;4984936;28;20125;-78
2022/11/21 09:20:14;;;;;;;32.15;19.52;;;2.00;99.90;;;0.33;100.00;100009.59;4977547;28;21490;-79
2022/11/21 09:22:41;;;;;;;26.30;14.95;;;1.90;99.90;;;0.28;100.00;100001.88;4978335;28;20515;-78
2022/11/21 09:25:11;;;;;;;24.88;14.50;;;1.90;99.90;;;0.24;100.00;99999.34;4982341;28;20037;-78
2022/11/21 09:27:38;;;;;;;38.38;27.77;;;1.80;99.90;;;0.19;100.00;99997.72;4954685;28;20038;-77
2022/11/21 09:30:08;;;;;;;1999.90;999.90;;;1.80;99.90;;;0.11;100.00;99994.38;4980793;28;20034;-77
2022/11/21 09:32:41;;;;;;;1999.90;999.90;;;1.70;99.90;;;0.04;100.00;99989.31;4980627;28;20023;-78
2022/11/21 09:35:09;;;;;;;41.92;35.22;;;1.70;99.90;;;-0.10;100.00;99989.53;4968312;28;20043;-79
2022/11/21 09:37:39;;;;;;;64.38;30.00;;;1.60;99.90;;;-0.18;100.00;99992.22;4979907;28;20042;-78
2022/11/21 09:40:18;;;;;;;25.30;15.77;;;1.50;99.90;;;-0.27;100.00;99994.94;4980127;28;20077;-77
2022/11/21 09:43:24;;;;;;;34.40;24.65;;;1.40;99.90;;;-0.29;100.00;99994.09;4969610;28;20034;-76
2022/11/21 09:46:17;;;;;;;1999.90;999.90;;;1.40;99.90;;;-0.29;100.00;99994.09;4981618;28;20042;-79
2022/11/21 09:49:01;;;;;;;1999.90;999.90;;;1.40;99.90;;;-0.25;100.00;99994.03;4969629;28;20039;-77
2022/11/21 09:51:38;;;;;;;1999.90;999.90;;;1.40;99.90;;;-0.14;100.00;99993.88;4975116;28;20047;-77
2022/11/21 09:54:30;;;;;;;1999.90;999.90;;;1.50;99.90;;;-0.02;100.00;99993.72;4981322;28;20406;-77
2022/11/21 09:56:56;;;;;;;1999.90;999.90;;;1.70;99.90;;;0.14;100.00;99998.66;4980902;28;20027;-77
2022/11/21 09:59:42;;;;;;;1999.90;999.90;;;1.80;99.90;;;0.23;100.00;99998.50;4960004;28;20030;-76
2022/11/21 10:02:25;;;;;;;24.45;14.45;;;1.80;99.90;;;0.26;100.00;100002.78;4963146;28;20034;-78
2022/11/21 10:04:59;;;;;;;23.75;15.30;;;1.90;99.90;;;0.39;100.00;100002.56;4981336;28;20161;-77
2022/11/21 10:07:36;;;;;;;24.50;14.30;;;2.00;99.90;;;0.49;100.00;100005.00;4968535;28;20117;-77
2022/11/21 10:10:46;;;;;;;22.33;14.75;;;2.00;99.90;;;0.52;100.00;100007.50;4951711;28;20031;-78
2022/11/21 10:14:11;;;;;;;23.45;14.52;;;2.10;99.90;;;0.54;100.00;100003.16;4942387;28;20045;-76
2022/11/21 10:17:21;;;;;;;22.77;13.27;;;2.10;99.90;;;0.56;100.00;100007.47;4962134;28;20054;-77
2022/11/21 10:20:33;;;;;;;20.98;13.93;;;2.10;99.90;;;0.50;100.00;100007.56;4959823;28;20096;-78
2022/11/21 10:23:38;;;;;;;21.00;12.57;;;2.10;99.90;;;0.54;100.00;100003.16;4978969;28;20113;-77
2022/11/21 10:26:55;;;;;;;24.00;13.25;;;2.10;99.90;;;0.56;100.00;100001.41;4978223;28;20027;-78
2022/11/21 10:30:10;;;;;;;20.67;12.60;;;2.10;99.90;;;0.60;100.00;100005.66;4963403;28;20031;-78